East Windham, New York
Current Conditions -  °F | °C
As of 4:51 PM on Wednesday 28 Jan 2015 (Local Time) from KALB Reporting Station
Clear Clear  
Wind Chill: 11°   Ceiling: Unl
Heat Index: 21°   Visibility: 10mi
Dew Point: -1°   Wind: 8mph
Humidity: 38%   Direction: 350°N
Pressure: 30.18"   Gusts: NA
Location:  42.2614°N, 74.2189°W
Report Text: KALB 282151Z 35007KT 10SM CLR M06/M18 A3018 RMK AO2 SLP227 T10611183
Loading
Personal Weather Stations






























Interactive Weather Map New forecast layout! Learn more

10-Day Weather Forecast

Advertisements
Track Severe Weather on mobile